Portada
METAR-TAF:

METAR-TAF

Aeropuertos :

Aeropuerto Internacional Hato

Curazao, Antillas Neerlandesas

latitud: 12-12N, longitud: 068-58W, altitud: 9 m

Observación

El informe se hizo hace 25 minutos, a las 08:00 UTC
Viento 12 kt del este
Temperatura 25°C
Humedad 79%
Presión 1014 hPa
Visibilidad 10 km o más
Nubes dispersas a una altura de 2300 ft

METAR: TNCC 180800Z AUTO 10012KT 9999 SCT023 25/21 Q1014 NOSIG

Hora: 04:25 (08:25 UTC)

Pronóstico

El informe se hizo hace 4 horas y 25 minutos, a las 04:00 UTC
Pronóstico válido del 18 a las 06 UTC al 19 a las 06 UTC
Viento 17 kt del este con ráfagas de 28 kt
Visibilidad 10 km o más
Nubes dispersas a una altura de 1800 ft
Temporalmente
del 18 a las 06 UTC al 18 a las 16 UTC
Cielo nuboso a una altura de 1400 ft

TAF: TNCC 180400Z 1806/1906 10017G28KT 9999 SCT018 TEMPO 1806/1816 BKN014

Observaciones y pronósticos meteorológicos de más de 4000 aeropuertos (mensajes METAR y TAF).

Los puntos amarillos y rojos representan las estaciones disponibles.

Ponga el ratón en el punto deseado para ver el nombre de la estación.

Haga clic para ver las observaciones y los pronósticos meteorológicos.

Para cambiar el mapa : haga clic en los botones verdes con una cruz de color negro para hacer un zoom, en el botón verde con un guión para alejar o en las flechas verdes para mapas adyacentes.


METAR-TAF: